sensor_id;sensor_type;location;lat;lon;timestamp;temperature;humidity
52058;DHT22;38063;53.210;6.504;2024-02-21T00:00:47;9.20;99.90
52058;DHT22;38063;53.210;6.504;2024-02-21T00:03:13;9.20;99.90
52058;DHT22;38063;53.210;6.504;2024-02-21T00:05:39;9.20;99.90
52058;DHT22;38063;53.210;6.504;2024-02-21T00:08:05;9.20;99.90
52058;DHT22;38063;53.210;6.504;2024-02-21T00:10:30;9.10;99.90
52058;DHT22;38063;53.210;6.504;2024-02-21T00:12:58;9.10;99.90
52058;DHT22;38063;53.210;6.504;2024-02-21T00:15:25;9.00;99.90
52058;DHT22;38063;53.210;6.504;2024-02-21T00:17:51;9.00;99.90
52058;DHT22;38063;53.210;6.504;2024-02-21T00:20:16;9.00;99.90
52058;DHT22;38063;53.210;6.504;2024-02-21T00:22:43;9.00;99.90
52058;DHT22;38063;53.210;6.504;2024-02-21T00:25:10;8.90;99.90
52058;DHT22;38063;53.210;6.504;2024-02-21T00:27:35;8.90;99.90
52058;DHT22;38063;53.210;6.504;2024-02-21T00:30:02;9.00;99.90
52058;DHT22;38063;53.210;6.504;2024-02-21T00:32:28;8.80;99.90
52058;DHT22;38063;53.210;6.504;2024-02-21T00:34:53;8.80;99.90
52058;DHT22;38063;53.210;6.504;2024-02-21T00:37:19;9.10;99.90
52058;DHT22;38063;53.210;6.504;2024-02-21T00:39:44;8.80;99.90
52058;DHT22;38063;53.210;6.504;2024-02-21T00:42:10;8.70;99.90
52058;DHT22;38063;53.210;6.504;2024-02-21T00:44:36;8.70;99.90
52058;DHT22;38063;53.210;6.504;2024-02-21T00:47:01;8.70;99.90
52058;DHT22;38063;53.210;6.504;2024-02-21T00:49:27;8.60;99.90
52058;DHT22;38063;53.210;6.504;2024-02-21T00:51:53;8.70;99.90
52058;DHT22;38063;53.210;6.504;2024-02-21T00:54:18;8.70;99.90
52058;DHT22;38063;53.210;6.504;2024-02-21T00:56:44;8.70;99.90
52058;DHT22;38063;53.210;6.504;2024-02-21T00:59:09;8.60;99.90
52058;DHT22;38063;53.210;6.504;2024-02-21T01:01:35;8.70;99.90
52058;DHT22;38063;53.210;6.504;2024-02-21T01:04:01;9.00;99.90
52058;DHT22;38063;53.210;6.504;2024-02-21T01:06:26;8.60;99.90
52058;DHT22;38063;53.210;6.504;2024-02-21T01:08:52;8.60;99.90
52058;DHT22;38063;53.210;6.504;2024-02-21T01:11:18;8.60;99.90
52058;DHT22;38063;53.210;6.504;2024-02-21T01:13:44;8.60;99.90
52058;DHT22;38063;53.210;6.504;2024-02-21T01:16:09;8.60;99.90
52058;DHT22;38063;53.210;6.504;2024-02-21T01:18:37;8.60;99.90
52058;DHT22;38063;53.210;6.504;2024-02-21T01:21:03;8.60;99.90
52058;DHT22;38063;53.210;6.504;2024-02-21T01:23:33;8.60;99.90
52058;DHT22;38063;53.210;6.504;2024-02-21T01:25:58;8.60;99.90
52058;DHT22;38063;53.210;6.504;2024-02-21T01:28:24;8.60;99.90
52058;DHT22;38063;53.210;6.504;2024-02-21T01:30:49;9.10;99.90
52058;DHT22;38063;53.210;6.504;2024-02-21T01:33:15;8.60;99.90
52058;DHT22;38063;53.210;6.504;2024-02-21T01:35:41;8.60;99.90
52058;DHT22;38063;53.210;6.504;2024-02-21T01:38:07;8.50;99.90
52058;DHT22;38063;53.210;6.504;2024-02-21T01:40:32;8.60;99.90
52058;DHT22;38063;53.210;6.504;2024-02-21T01:42:58;8.50;99.90
52058;DHT22;38063;53.210;6.504;2024-02-21T01:45:23;8.50;99.90
52058;DHT22;38063;53.210;6.504;2024-02-21T01:47:49;8.50;99.90
52058;DHT22;38063;53.210;6.504;2024-02-21T01:50:17;8.50;99.90
52058;DHT22;38063;53.210;6.504;2024-02-21T01:52:43;8.40;99.90
52058;DHT22;38063;53.210;6.504;2024-02-21T01:55:13;8.50;99.90
52058;DHT22;38063;53.210;6.504;2024-02-21T01:57:40;8.40;99.90
52058;DHT22;38063;53.210;6.504;2024-02-21T02:00:07;8.60;99.90
52058;DHT22;38063;53.210;6.504;2024-02-21T02:02:34;8.40;99.90
52058;DHT22;38063;53.210;6.504;2024-02-21T02:04:59;8.60;99.90
52058;DHT22;38063;53.210;6.504;2024-02-21T02:07:26;8.40;99.90
52058;DHT22;38063;53.210;6.504;2024-02-21T02:09:51;8.80;99.90
52058;DHT22;38063;53.210;6.504;2024-02-21T02:12:17;8.40;99.90
52058;DHT22;38063;53.210;6.504;2024-02-21T02:14:43;8.60;99.90
52058;DHT22;38063;53.210;6.504;2024-02-21T02:17:08;8.50;99.90
52058;DHT22;38063;53.210;6.504;2024-02-21T02:19:35;8.40;99.90
52058;DHT22;38063;53.210;6.504;2024-02-21T02:22:13;8.40;99.90
52058;DHT22;38063;53.210;6.504;2024-02-21T02:24:40;8.40;99.90
52058;DHT22;38063;53.210;6.504;2024-02-21T02:27:06;8.40;99.90
52058;DHT22;38063;53.210;6.504;2024-02-21T02:29:32;8.50;99.90
52058;DHT22;38063;53.210;6.504;2024-02-21T02:31:58;8.50;99.90
52058;DHT22;38063;53.210;6.504;2024-02-21T02:34:23;8.40;99.90
52058;DHT22;38063;53.210;6.504;2024-02-21T02:36:49;8.50;99.90
52058;DHT22;38063;53.210;6.504;2024-02-21T02:39:15;8.40;99.90
52058;DHT22;38063;53.210;6.504;2024-02-21T02:41:41;8.60;99.90
52058;DHT22;38063;53.210;6.504;2024-02-21T02:44:06;8.50;99.90
52058;DHT22;38063;53.210;6.504;2024-02-21T02:46:32;8.50;99.90
52058;DHT22;38063;53.210;6.504;2024-02-21T02:48:57;8.50;99.90
52058;DHT22;38063;53.210;6.504;2024-02-21T02:51:23;8.50;99.90
52058;DHT22;38063;53.210;6.504;2024-02-21T02:53:49;8.80;99.90
52058;DHT22;38063;53.210;6.504;2024-02-21T02:56:15;8.50;99.90
52058;DHT22;38063;53.210;6.504;2024-02-21T02:58:42;8.50;99.90
52058;DHT22;38063;53.210;6.504;2024-02-21T03:01:08;8.50;99.90
52058;DHT22;38063;53.210;6.504;2024-02-21T03:03:34;8.50;99.90
52058;DHT22;38063;53.210;6.504;2024-02-21T03:06:00;8.50;99.90
52058;DHT22;38063;53.210;6.504;2024-02-21T03:08:26;8.50;99.90
52058;DHT22;38063;53.210;6.504;2024-02-21T03:10:52;8.40;99.90
52058;DHT22;38063;53.210;6.504;2024-02-21T03:13:17;8.40;99.90
52058;DHT22;38063;53.210;6.504;2024-02-21T03:15:43;8.40;99.90
52058;DHT22;38063;53.210;6.504;2024-02-21T03:18:08;8.40;99.90
52058;DHT22;38063;53.210;6.504;2024-02-21T03:20:34;8.40;99.90
52058;DHT22;38063;53.210;6.504;2024-02-21T03:23:00;8.40;99.90
52058;DHT22;38063;53.210;6.504;2024-02-21T03:25:25;8.40;99.90
52058;DHT22;38063;53.210;6.504;2024-02-21T03:27:51;8.50;99.90
52058;DHT22;38063;53.210;6.504;2024-02-21T03:30:17;8.50;99.90
52058;DHT22;38063;53.210;6.504;2024-02-21T03:32:42;8.50;99.90
52058;DHT22;38063;53.210;6.504;2024-02-21T03:35:08;8.80;99.90
52058;DHT22;38063;53.210;6.504;2024-02-21T03:37:34;8.40;99.90
52058;DHT22;38063;53.210;6.504;2024-02-21T03:39:59;8.40;99.90
52058;DHT22;38063;53.210;6.504;2024-02-21T03:42:25;8.40;99.90
52058;DHT22;38063;53.210;6.504;2024-02-21T03:44:51;8.40;99.90
52058;DHT22;38063;53.210;6.504;2024-02-21T03:47:16;8.40;99.90
52058;DHT22;38063;53.210;6.504;2024-02-21T03:49:42;8.50;99.90
52058;DHT22;38063;53.210;6.504;2024-02-21T03:52:08;8.40;99.90
52058;DHT22;38063;53.210;6.504;2024-02-21T03:54:34;8.50;99.90
52058;DHT22;38063;53.210;6.504;2024-02-21T03:57:00;8.50;99.90
52058;DHT22;38063;53.210;6.504;2024-02-21T03:59:25;8.40;99.90
52058;DHT22;38063;53.210;6.504;2024-02-21T04:01:52;8.40;99.90
52058;DHT22;38063;53.210;6.504;2024-02-21T04:04:18;8.50;99.90
52058;DHT22;38063;53.210;6.504;2024-02-21T04:06:50;8.40;99.90
52058;DHT22;38063;53.210;6.504;2024-02-21T04:09:16;8.40;99.90
52058;DHT22;38063;53.210;6.504;2024-02-21T04:11:42;8.40;99.90
52058;DHT22;38063;53.210;6.504;2024-02-21T04:14:08;8.40;99.90
52058;DHT22;38063;53.210;6.504;2024-02-21T04:16:34;8.40;99.90
52058;DHT22;38063;53.210;6.504;2024-02-21T04:19:00;8.40;99.90
52058;DHT22;38063;53.210;6.504;2024-02-21T04:21:27;8.40;99.90
52058;DHT22;38063;53.210;6.504;2024-02-21T04:23:53;8.60;99.90
52058;DHT22;38063;53.210;6.504;2024-02-21T04:26:19;8.60;99.90
52058;DHT22;38063;53.210;6.504;2024-02-21T04:28:47;8.40;99.90
52058;DHT22;38063;53.210;6.504;2024-02-21T04:31:13;8.50;99.90
52058;DHT22;38063;53.210;6.504;2024-02-21T04:33:39;8.40;99.90
52058;DHT22;38063;53.210;6.504;2024-02-21T04:36:04;8.40;99.90
52058;DHT22;38063;53.210;6.504;2024-02-21T04:38:30;8.40;99.90
52058;DHT22;38063;53.210;6.504;2024-02-21T04:40:56;8.40;99.90
52058;DHT22;38063;53.210;6.504;2024-02-21T04:43:27;8.40;99.90
52058;DHT22;38063;53.210;6.504;2024-02-21T04:45:52;8.40;99.90
52058;DHT22;38063;53.210;6.504;2024-02-21T04:48:19;8.40;99.90
52058;DHT22;38063;53.210;6.504;2024-02-21T04:50:45;8.40;99.90
52058;DHT22;38063;53.210;6.504;2024-02-21T04:53:10;8.40;99.90
52058;DHT22;38063;53.210;6.504;2024-02-21T04:55:36;8.40;99.90
52058;DHT22;38063;53.210;6.504;2024-02-21T04:58:02;8.40;99.90
52058;DHT22;38063;53.210;6.504;2024-02-21T05:00:27;8.40;99.90
52058;DHT22;38063;53.210;6.504;2024-02-21T05:02:53;8.40;99.90
52058;DHT22;38063;53.210;6.504;2024-02-21T05:05:19;8.40;99.90
52058;DHT22;38063;53.210;6.504;2024-02-21T05:07:44;8.40;99.90
52058;DHT22;38063;53.210;6.504;2024-02-21T05:10:10;8.30;99.90
52058;DHT22;38063;53.210;6.504;2024-02-21T05:12:36;8.40;99.90
52058;DHT22;38063;53.210;6.504;2024-02-21T05:15:03;8.40;99.90
52058;DHT22;38063;53.210;6.504;2024-02-21T05:17:28;8.30;99.90
52058;DHT22;38063;53.210;6.504;2024-02-21T05:19:54;8.30;99.90
52058;DHT22;38063;53.210;6.504;2024-02-21T05:22:20;8.40;99.90
52058;DHT22;38063;53.210;6.504;2024-02-21T05:24:45;8.40;99.90
52058;DHT22;38063;53.210;6.504;2024-02-21T05:27:11;8.40;99.90
52058;DHT22;38063;53.210;6.504;2024-02-21T05:29:37;8.40;99.90
52058;DHT22;38063;53.210;6.504;2024-02-21T05:32:02;8.40;99.90
52058;DHT22;38063;53.210;6.504;2024-02-21T05:34:28;8.40;99.90
52058;DHT22;38063;53.210;6.504;2024-02-21T05:36:54;8.40;99.90
52058;DHT22;38063;53.210;6.504;2024-02-21T05:39:20;8.30;99.90
52058;DHT22;38063;53.210;6.504;2024-02-21T05:41:48;8.40;99.90
52058;DHT22;38063;53.210;6.504;2024-02-21T05:44:14;8.30;99.90
52058;DHT22;38063;53.210;6.504;2024-02-21T05:46:39;8.50;99.90
52058;DHT22;38063;53.210;6.504;2024-02-21T05:49:05;8.60;99.90
52058;DHT22;38063;53.210;6.504;2024-02-21T05:51:33;8.60;99.90
52058;DHT22;38063;53.210;6.504;2024-02-21T05:53:59;8.40;99.90
52058;DHT22;38063;53.210;6.504;2024-02-21T05:56:24;8.40;99.90
52058;DHT22;38063;53.210;6.504;2024-02-21T05:58:50;8.40;99.90
52058;DHT22;38063;53.210;6.504;2024-02-21T06:01:16;8.30;99.90
52058;DHT22;38063;53.210;6.504;2024-02-21T06:03:41;8.40;99.90
52058;DHT22;38063;53.210;6.504;2024-02-21T06:06:07;8.40;99.90
52058;DHT22;38063;53.210;6.504;2024-02-21T06:08:32;8.30;99.90
52058;DHT22;38063;53.210;6.504;2024-02-21T06:10:58;8.40;99.90
52058;DHT22;38063;53.210;6.504;2024-02-21T06:13:24;8.60;99.90
52058;DHT22;38063;53.210;6.504;2024-02-21T06:15:50;8.40;99.90
52058;DHT22;38063;53.210;6.504;2024-02-21T06:18:19;8.30;99.90
52058;DHT22;38063;53.210;6.504;2024-02-21T06:20:45;8.40;99.90
52058;DHT22;38063;53.210;6.504;2024-02-21T06:23:15;8.80;99.90
52058;DHT22;38063;53.210;6.504;2024-02-21T06:25:42;8.30;99.90
52058;DHT22;38063;53.210;6.504;2024-02-21T06:28:08;8.30;99.90
52058;DHT22;38063;53.210;6.504;2024-02-21T06:30:34;8.30;99.90
52058;DHT22;38063;53.210;6.504;2024-02-21T06:32:59;8.30;99.90
52058;DHT22;38063;53.210;6.504;2024-02-21T06:35:26;8.30;99.90
52058;DHT22;38063;53.210;6.504;2024-02-21T06:37:52;8.30;99.90
52058;DHT22;38063;53.210;6.504;2024-02-21T06:40:20;8.30;99.90
52058;DHT22;38063;53.210;6.504;2024-02-21T06:42:46;8.30;99.90
52058;DHT22;38063;53.210;6.504;2024-02-21T06:45:12;8.30;99.90
52058;DHT22;38063;53.210;6.504;2024-02-21T06:47:38;8.30;99.90
52058;DHT22;38063;53.210;6.504;2024-02-21T06:50:03;8.30;99.90
52058;DHT22;38063;53.210;6.504;2024-02-21T06:52:29;8.30;99.90
52058;DHT22;38063;53.210;6.504;2024-02-21T06:54:56;8.30;99.90
52058;DHT22;38063;53.210;6.504;2024-02-21T06:57:22;8.30;99.90
52058;DHT22;38063;53.210;6.504;2024-02-21T06:59:48;8.30;99.90
52058;DHT22;38063;53.210;6.504;2024-02-21T07:02:14;8.60;99.90
52058;DHT22;38063;53.210;6.504;2024-02-21T07:04:39;8.80;99.90
52058;DHT22;38063;53.210;6.504;2024-02-21T07:07:05;8.30;99.90
52058;DHT22;38063;53.210;6.504;2024-02-21T07:09:31;8.30;99.90
52058;DHT22;38063;53.210;6.504;2024-02-21T07:12:00;8.40;99.90
52058;DHT22;38063;53.210;6.504;2024-02-21T07:14:27;8.40;99.90
52058;DHT22;38063;53.210;6.504;2024-02-21T07:16:53;8.30;99.90
52058;DHT22;38063;53.210;6.504;2024-02-21T07:19:19;8.30;99.90
52058;DHT22;38063;53.210;6.504;2024-02-21T07:21:45;8.40;99.90
52058;DHT22;38063;53.210;6.504;2024-02-21T07:24:11;8.40;99.90
52058;DHT22;38063;53.210;6.504;2024-02-21T07:26:40;8.30;99.90
52058;DHT22;38063;53.210;6.504;2024-02-21T07:29:06;8.30;99.90
52058;DHT22;38063;53.210;6.504;2024-02-21T07:31:38;8.40;99.90
52058;DHT22;38063;53.210;6.504;2024-02-21T07:34:03;8.50;99.90
52058;DHT22;38063;53.210;6.504;2024-02-21T07:36:29;8.40;99.90
52058;DHT22;38063;53.210;6.504;2024-02-21T07:38:58;8.30;99.90
52058;DHT22;38063;53.210;6.504;2024-02-21T07:41:24;8.30;99.90
52058;DHT22;38063;53.210;6.504;2024-02-21T07:43:50;8.40;99.90
52058;DHT22;38063;53.210;6.504;2024-02-21T07:46:15;8.40;99.90
52058;DHT22;38063;53.210;6.504;2024-02-21T07:48:41;8.40;99.90
52058;DHT22;38063;53.210;6.504;2024-02-21T07:51:07;8.50;99.90
52058;DHT22;38063;53.210;6.504;2024-02-21T07:53:32;8.80;99.90
52058;DHT22;38063;53.210;6.504;2024-02-21T07:55:58;8.40;99.90
52058;DHT22;38063;53.210;6.504;2024-02-21T07:58:23;8.40;99.90
52058;DHT22;38063;53.210;6.504;2024-02-21T08:00:49;8.50;99.90
52058;DHT22;38063;53.210;6.504;2024-02-21T08:03:15;8.40;99.90
52058;DHT22;38063;53.210;6.504;2024-02-21T08:05:43;8.40;99.90
52058;DHT22;38063;53.210;6.504;2024-02-21T08:08:09;8.40;99.90
52058;DHT22;38063;53.210;6.504;2024-02-21T08:10:34;8.50;99.90
52058;DHT22;38063;53.210;6.504;2024-02-21T08:13:00;8.60;99.90
52058;DHT22;38063;53.210;6.504;2024-02-21T08:15:26;8.40;99.90
52058;DHT22;38063;53.210;6.504;2024-02-21T08:17:55;8.50;99.90
52058;DHT22;38063;53.210;6.504;2024-02-21T08:20:25;8.40;99.90
52058;DHT22;38063;53.210;6.504;2024-02-21T08:22:50;8.40;99.90
52058;DHT22;38063;53.210;6.504;2024-02-21T08:25:16;8.50;99.90
52058;DHT22;38063;53.210;6.504;2024-02-21T08:27:42;8.40;99.90
52058;DHT22;38063;53.210;6.504;2024-02-21T08:30:07;8.40;99.90
52058;DHT22;38063;53.210;6.504;2024-02-21T08:32:34;8.40;99.90
52058;DHT22;38063;53.210;6.504;2024-02-21T08:35:01;8.40;99.90
52058;DHT22;38063;53.210;6.504;2024-02-21T08:37:27;8.50;99.90
52058;DHT22;38063;53.210;6.504;2024-02-21T08:39:53;8.50;99.90
52058;DHT22;38063;53.210;6.504;2024-02-21T08:42:19;8.50;99.90
52058;DHT22;38063;53.210;6.504;2024-02-21T08:44:44;8.60;99.90
52058;DHT22;38063;53.210;6.504;2024-02-21T08:47:11;8.50;99.90
52058;DHT22;38063;53.210;6.504;2024-02-21T08:49:37;8.50;99.90
52058;DHT22;38063;53.210;6.504;2024-02-21T08:52:03;8.50;99.90
52058;DHT22;38063;53.210;6.504;2024-02-21T08:54:29;8.40;99.90
52058;DHT22;38063;53.210;6.504;2024-02-21T08:56:55;8.60;99.90
52058;DHT22;38063;53.210;6.504;2024-02-21T08:59:20;8.60;99.90
52058;DHT22;38063;53.210;6.504;2024-02-21T09:01:46;8.50;99.90
52058;DHT22;38063;53.210;6.504;2024-02-21T09:04:12;8.50;99.90
52058;DHT22;38063;53.210;6.504;2024-02-21T09:06:38;8.60;99.90
52058;DHT22;38063;53.210;6.504;2024-02-21T09:09:08;8.50;99.90
52058;DHT22;38063;53.210;6.504;2024-02-21T09:11:35;8.60;99.90
52058;DHT22;38063;53.210;6.504;2024-02-21T09:14:01;8.60;99.90
52058;DHT22;38063;53.210;6.504;2024-02-21T09:16:32;8.60;99.90
52058;DHT22;38063;53.210;6.504;2024-02-21T09:18:58;8.60;99.90
52058;DHT22;38063;53.210;6.504;2024-02-21T09:21:24;8.60;99.90
52058;DHT22;38063;53.210;6.504;2024-02-21T09:23:49;9.00;99.90
52058;DHT22;38063;53.210;6.504;2024-02-21T09:26:15;8.60;99.90
52058;DHT22;38063;53.210;6.504;2024-02-21T09:28:43;8.60;99.90
52058;DHT22;38063;53.210;6.504;2024-02-21T09:31:09;8.70;99.90
52058;DHT22;38063;53.210;6.504;2024-02-21T09:33:35;8.70;99.90
52058;DHT22;38063;53.210;6.504;2024-02-21T09:36:01;8.80;99.90
52058;DHT22;38063;53.210;6.504;2024-02-21T09:38:27;8.70;99.90
52058;DHT22;38063;53.210;6.504;2024-02-21T09:41:00;8.70;99.90
52058;DHT22;38063;53.210;6.504;2024-02-21T09:43:29;8.70;99.90
52058;DHT22;38063;53.210;6.504;2024-02-21T09:45:55;9.00;99.90
52058;DHT22;38063;53.210;6.504;2024-02-21T09:50:59;8.70;99.90
52058;DHT22;38063;53.210;6.504;2024-02-21T09:53:25;9.00;99.90
52058;DHT22;38063;53.210;6.504;2024-02-21T09:55:52;8.70;99.90
52058;DHT22;38063;53.210;6.504;2024-02-21T09:58:18;8.70;99.90
52058;DHT22;38063;53.210;6.504;2024-02-21T10:00:43;8.70;99.90
52058;DHT22;38063;53.210;6.504;2024-02-21T10:03:09;8.70;99.90
52058;DHT22;38063;53.210;6.504;2024-02-21T10:05:36;8.70;99.90
52058;DHT22;38063;53.210;6.504;2024-02-21T10:08:02;8.80;99.90
52058;DHT22;38063;53.210;6.504;2024-02-21T10:10:28;8.70;99.90
52058;DHT22;38063;53.210;6.504;2024-02-21T10:12:56;8.70;99.90
52058;DHT22;38063;53.210;6.504;2024-02-21T10:15:22;8.80;99.90
52058;DHT22;38063;53.210;6.504;2024-02-21T10:17:59;8.80;99.90
52058;DHT22;38063;53.210;6.504;2024-02-21T10:20:26;8.80;99.90
52058;DHT22;38063;53.210;6.504;2024-02-21T10:23:04;8.80;99.90
52058;DHT22;38063;53.210;6.504;2024-02-21T10:25:36;8.90;99.90
52058;DHT22;38063;53.210;6.504;2024-02-21T10:28:08;9.20;99.90
52058;DHT22;38063;53.210;6.504;2024-02-21T10:30:37;8.90;99.90
52058;DHT22;38063;53.210;6.504;2024-02-21T10:33:03;8.90;99.90
52058;DHT22;38063;53.210;6.504;2024-02-21T10:35:32;8.80;99.90
52058;DHT22;38063;53.210;6.504;2024-02-21T10:37:58;8.90;99.90
52058;DHT22;38063;53.210;6.504;2024-02-21T10:40:29;8.90;99.90
52058;DHT22;38063;53.210;6.504;2024-02-21T10:42:59;8.90;99.90
52058;DHT22;38063;53.210;6.504;2024-02-21T10:45:35;8.90;99.90
52058;DHT22;38063;53.210;6.504;2024-02-21T10:48:10;8.80;99.90
52058;DHT22;38063;53.210;6.504;2024-02-21T10:50:47;8.90;99.90
52058;DHT22;38063;53.210;6.504;2024-02-21T10:53:52;8.90;99.90
52058;DHT22;38063;53.210;6.504;2024-02-21T10:58:52;9.00;99.90
52058;DHT22;38063;53.210;6.504;2024-02-21T11:01:18;9.10;99.90
52058;DHT22;38063;53.210;6.504;2024-02-21T11:03:50;9.10;99.90
52058;DHT22;38063;53.210;6.504;2024-02-21T11:06:17;9.20;99.90
52058;DHT22;38063;53.210;6.504;2024-02-21T11:08:44;9.20;99.90
52058;DHT22;38063;53.210;6.504;2024-02-21T11:11:12;9.30;99.90
52058;DHT22;38063;53.210;6.504;2024-02-21T11:13:43;9.40;99.90
52058;DHT22;38063;53.210;6.504;2024-02-21T11:16:11;9.50;99.90
52058;DHT22;38063;53.210;6.504;2024-02-21T11:18:37;9.50;99.90
52058;DHT22;38063;53.210;6.504;2024-02-21T11:21:03;9.50;99.90
52058;DHT22;38063;53.210;6.504;2024-02-21T11:23:32;9.60;99.90
52058;DHT22;38063;53.210;6.504;2024-02-21T11:26:08;9.60;99.90
52058;DHT22;38063;53.210;6.504;2024-02-21T11:28:34;9.60;99.90
52058;DHT22;38063;53.210;6.504;2024-02-21T11:31:37;9.60;99.90
52058;DHT22;38063;53.210;6.504;2024-02-21T11:33:53;9.60;99.90
52058;DHT22;38063;53.210;6.504;2024-02-21T11:36:26;9.60;99.90
52058;DHT22;38063;53.210;6.504;2024-02-21T11:38:52;9.90;99.90
52058;DHT22;38063;53.210;6.504;2024-02-21T11:41:21;9.60;99.90
52058;DHT22;38063;53.210;6.504;2024-02-21T11:43:48;9.60;99.90
52058;DHT22;38063;53.210;6.504;2024-02-21T11:46:15;9.60;99.90
52058;DHT22;38063;53.210;6.504;2024-02-21T11:48:41;9.60;99.90
52058;DHT22;38063;53.210;6.504;2024-02-21T11:51:10;9.60;99.90
52058;DHT22;38063;53.210;6.504;2024-02-21T11:53:36;9.50;99.90
52058;DHT22;38063;53.210;6.504;2024-02-21T11:56:02;9.50;99.90
52058;DHT22;38063;53.210;6.504;2024-02-21T11:58:28;9.50;99.90
52058;DHT22;38063;53.210;6.504;2024-02-21T12:00:55;9.50;99.90
52058;DHT22;38063;53.210;6.504;2024-02-21T12:03:20;9.50;99.90
52058;DHT22;38063;53.210;6.504;2024-02-21T12:05:46;9.50;99.90
52058;DHT22;38063;53.210;6.504;2024-02-21T12:08:12;9.50;99.90
52058;DHT22;38063;53.210;6.504;2024-02-21T12:10:37;9.50;99.90
52058;DHT22;38063;53.210;6.504;2024-02-21T12:13:09;9.60;99.90
52058;DHT22;38063;53.210;6.504;2024-02-21T12:15:35;9.60;99.90
52058;DHT22;38063;53.210;6.504;2024-02-21T12:18:01;9.60;99.90
52058;DHT22;38063;53.210;6.504;2024-02-21T12:20:26;9.60;99.90
52058;DHT22;38063;53.210;6.504;2024-02-21T12:22:52;9.60;99.90
52058;DHT22;38063;53.210;6.504;2024-02-21T12:25:21;9.60;99.90
52058;DHT22;38063;53.210;6.504;2024-02-21T12:27:52;9.60;99.90
52058;DHT22;38063;53.210;6.504;2024-02-21T12:30:18;9.60;99.90
52058;DHT22;38063;53.210;6.504;2024-02-21T12:32:45;9.60;99.90
52058;DHT22;38063;53.210;6.504;2024-02-21T12:35:10;9.80;99.90
52058;DHT22;38063;53.210;6.504;2024-02-21T12:37:37;9.60;99.90
52058;DHT22;38063;53.210;6.504;2024-02-21T12:40:05;9.70;99.90
52058;DHT22;38063;53.210;6.504;2024-02-21T12:42:35;9.70;99.90
52058;DHT22;38063;53.210;6.504;2024-02-21T12:45:02;9.70;99.90
52058;DHT22;38063;53.210;6.504;2024-02-21T12:47:28;9.70;99.90
52058;DHT22;38063;53.210;6.504;2024-02-21T12:49:54;9.70;99.90
52058;DHT22;38063;53.210;6.504;2024-02-21T12:52:20;9.70;99.90
52058;DHT22;38063;53.210;6.504;2024-02-21T12:54:45;9.70;99.90
52058;DHT22;38063;53.210;6.504;2024-02-21T12:57:11;9.80;99.90
52058;DHT22;38063;53.210;6.504;2024-02-21T12:59:37;9.80;99.90
52058;DHT22;38063;53.210;6.504;2024-02-21T13:02:02;9.80;99.90
52058;DHT22;38063;53.210;6.504;2024-02-21T13:04:28;9.80;99.90
52058;DHT22;38063;53.210;6.504;2024-02-21T13:06:54;9.80;99.90
52058;DHT22;38063;53.210;6.504;2024-02-21T13:09:20;9.80;99.90
52058;DHT22;38063;53.210;6.504;2024-02-21T13:11:46;9.70;99.90
52058;DHT22;38063;53.210;6.504;2024-02-21T13:14:12;9.80;99.90
52058;DHT22;38063;53.210;6.504;2024-02-21T13:16:38;9.80;99.90
52058;DHT22;38063;53.210;6.504;2024-02-21T13:19:07;9.80;99.90
52058;DHT22;38063;53.210;6.504;2024-02-21T13:21:34;9.90;99.90
52058;DHT22;38063;53.210;6.504;2024-02-21T13:24:00;9.90;99.90
52058;DHT22;38063;53.210;6.504;2024-02-21T13:26:26;9.90;99.90
52058;DHT22;38063;53.210;6.504;2024-02-21T13:28:52;9.90;99.90
52058;DHT22;38063;53.210;6.504;2024-02-21T13:31:18;9.90;99.90
52058;DHT22;38063;53.210;6.504;2024-02-21T13:33:44;10.00;99.90
52058;DHT22;38063;53.210;6.504;2024-02-21T13:36:10;10.00;99.90
52058;DHT22;38063;53.210;6.504;2024-02-21T13:38:36;10.00;99.90
52058;DHT22;38063;53.210;6.504;2024-02-21T13:41:05;10.30;99.90
52058;DHT22;38063;53.210;6.504;2024-02-21T13:43:30;10.10;99.90
52058;DHT22;38063;53.210;6.504;2024-02-21T13:46:00;10.10;99.90
52058;DHT22;38063;53.210;6.504;2024-02-21T13:48:28;10.10;99.90
52058;DHT22;38063;53.210;6.504;2024-02-21T13:50:54;10.00;99.90
52058;DHT22;38063;53.210;6.504;2024-02-21T13:53:20;10.10;99.90
52058;DHT22;38063;53.210;6.504;2024-02-21T13:55:47;10.00;99.90
52058;DHT22;38063;53.210;6.504;2024-02-21T13:58:12;10.00;99.90
52058;DHT22;38063;53.210;6.504;2024-02-21T14:00:38;10.30;99.90
52058;DHT22;38063;53.210;6.504;2024-02-21T14:03:04;10.00;99.90
52058;DHT22;38063;53.210;6.504;2024-02-21T14:05:29;10.00;99.90
52058;DHT22;38063;53.210;6.504;2024-02-21T14:07:55;9.90;99.90
52058;DHT22;38063;53.210;6.504;2024-02-21T14:10:22;9.90;99.90
52058;DHT22;38063;53.210;6.504;2024-02-21T14:12:48;9.80;99.90
52058;DHT22;38063;53.210;6.504;2024-02-21T14:15:14;9.90;99.90
52058;DHT22;38063;53.210;6.504;2024-02-21T14:17:40;10.00;99.90
52058;DHT22;38063;53.210;6.504;2024-02-21T14:20:07;9.80;99.90
52058;DHT22;38063;53.210;6.504;2024-02-21T14:22:33;9.80;99.90
52058;DHT22;38063;53.210;6.504;2024-02-21T14:25:00;9.70;99.90
52058;DHT22;38063;53.210;6.504;2024-02-21T14:27:26;9.70;99.90
52058;DHT22;38063;53.210;6.504;2024-02-21T14:29:51;9.70;99.90
52058;DHT22;38063;53.210;6.504;2024-02-21T14:32:18;9.90;99.90
52058;DHT22;38063;53.210;6.504;2024-02-21T14:34:43;9.70;99.90
52058;DHT22;38063;53.210;6.504;2024-02-21T14:37:09;9.70;99.90
52058;DHT22;38063;53.210;6.504;2024-02-21T14:39:34;9.70;99.90
52058;DHT22;38063;53.210;6.504;2024-02-21T14:42:01;9.60;99.90
52058;DHT22;38063;53.210;6.504;2024-02-21T14:44:27;9.60;99.90
52058;DHT22;38063;53.210;6.504;2024-02-21T14:46:53;9.60;99.90
52058;DHT22;38063;53.210;6.504;2024-02-21T14:49:18;9.50;99.90
52058;DHT22;38063;53.210;6.504;2024-02-21T14:51:47;9.50;99.90
52058;DHT22;38063;53.210;6.504;2024-02-21T14:54:12;9.50;99.90
52058;DHT22;38063;53.210;6.504;2024-02-21T14:56:38;9.40;99.90
52058;DHT22;38063;53.210;6.504;2024-02-21T14:59:05;9.40;99.90
52058;DHT22;38063;53.210;6.504;2024-02-21T15:01:36;9.40;99.90
52058;DHT22;38063;53.210;6.504;2024-02-21T15:04:03;9.40;99.90
52058;DHT22;38063;53.210;6.504;2024-02-21T15:06:29;9.30;99.90
52058;DHT22;38063;53.210;6.504;2024-02-21T15:08:57;9.30;99.90
52058;DHT22;38063;53.210;6.504;2024-02-21T15:11:22;9.30;99.90
52058;DHT22;38063;53.210;6.504;2024-02-21T15:13:49;9.20;99.90
52058;DHT22;38063;53.210;6.504;2024-02-21T15:16:14;9.20;99.90
52058;DHT22;38063;53.210;6.504;2024-02-21T15:18:41;9.20;99.90
52058;DHT22;38063;53.210;6.504;2024-02-21T15:21:07;9.20;99.90
52058;DHT22;38063;53.210;6.504;2024-02-21T15:23:36;9.20;99.90
52058;DHT22;38063;53.210;6.504;2024-02-21T15:26:01;9.10;99.90
52058;DHT22;38063;53.210;6.504;2024-02-21T15:28:27;9.20;99.90
52058;DHT22;38063;53.210;6.504;2024-02-21T15:30:54;9.10;99.90
52058;DHT22;38063;53.210;6.504;2024-02-21T15:33:20;9.10;99.90
52058;DHT22;38063;53.210;6.504;2024-02-21T15:35:45;9.10;99.90
52058;DHT22;38063;53.210;6.504;2024-02-21T15:38:11;9.10;99.90
52058;DHT22;38063;53.210;6.504;2024-02-21T15:40:37;9.10;99.90
52058;DHT22;38063;53.210;6.504;2024-02-21T15:43:03;9.10;99.90
52058;DHT22;38063;53.210;6.504;2024-02-21T15:45:29;9.00;99.90